createdAt,value
2019-02-20T00:00:06.217Z,96.28
2019-02-20T00:02:34.644Z,96.20
2019-02-20T00:05:03.100Z,96.28
2019-02-20T00:07:31.612Z,95.18
2019-02-20T00:10:00.030Z,94.33
2019-02-20T00:12:28.485Z,95.16
2019-02-20T00:14:57.272Z,96.53
2019-02-20T00:17:25.784Z,96.50
2019-02-20T00:19:54.230Z,96.19
2019-02-20T00:22:22.650Z,95.71
2019-02-20T00:24:51.073Z,96.11
2019-02-20T00:27:19.538Z,96.61
2019-02-20T00:29:47.962Z,97.10
2019-02-20T00:32:16.722Z,96.89
2019-02-20T00:34:45.516Z,97.22
2019-02-20T00:37:13.930Z,97.04
2019-02-20T00:39:42.361Z,97.16
2019-02-20T00:42:10.808Z,96.18
2019-02-20T00:44:40.870Z,96.90
2019-02-20T00:47:29.315Z,96.98
2019-02-20T00:49:57.734Z,96.71
2019-02-20T00:52:33.355Z,96.64
2019-02-20T00:55:02.136Z,96.59
2019-02-20T00:57:30.562Z,96.44
2019-02-20T00:59:59.306Z,96.52
2019-02-20T01:02:27.915Z,95.90
2019-02-20T01:04:56.340Z,95.72
2019-02-20T01:07:24.770Z,95.78
2019-02-20T01:09:53.329Z,96.39
2019-02-20T01:12:22.324Z,96.41
2019-02-20T01:14:50.752Z,97.20
2019-02-20T01:17:19.240Z,96.29
2019-02-20T01:19:48.009Z,95.64
2019-02-20T01:22:16.420Z,97.09
2019-02-20T01:24:44.876Z,96.85
2019-02-20T01:27:13.623Z,96.55
2019-02-20T01:29:42.047Z,96.67
2019-02-20T01:32:10.584Z,96.23
2019-02-20T01:34:39.008Z,96.77
2019-02-20T01:37:07.439Z,96.10
2019-02-20T01:39:35.979Z,95.40
2019-02-20T01:42:04.497Z,95.62
2019-02-20T01:44:32.922Z,95.82
2019-02-20T01:47:01.452Z,95.35
2019-02-20T01:49:29.890Z,96.19
2019-02-20T01:51:58.315Z,96.30
2019-02-20T01:54:26.768Z,95.97
2019-02-20T01:56:57.178Z,95.54
2019-02-20T01:59:25.341Z,96.30
2019-02-20T02:01:53.792Z,96.56
2019-02-20T02:04:22.235Z,97.15
2019-02-20T02:06:51.001Z,96.09
2019-02-20T02:09:19.854Z,96.45
2019-02-20T02:11:48.283Z,96.72
2019-02-20T02:14:16.709Z,96.39
2019-02-20T02:16:45.180Z,97.24
2019-02-20T02:19:13.881Z,96.53
2019-02-20T02:21:42.314Z,96.47
2019-02-20T02:24:10.876Z,96.34
2019-02-20T02:26:39.308Z,96.68
2019-02-20T02:29:07.735Z,97.47
2019-02-20T02:31:36.198Z,97.67
2019-02-20T02:34:05.565Z,96.85
2019-02-20T02:36:34.081Z,97.34
2019-02-20T02:39:02.616Z,97.07
2019-02-20T02:41:31.332Z,96.40
2019-02-20T02:43:59.755Z,96.71
2019-02-20T02:46:28.208Z,97.19
2019-02-20T02:48:56.637Z,97.05
2019-02-20T02:51:25.059Z,97.37
2019-02-20T02:53:53.518Z,97.54
2019-02-20T02:56:21.945Z,96.33
2019-02-20T02:58:50.463Z,95.97
2019-02-20T03:01:18.937Z,96.91
2019-02-20T03:03:47.375Z,97.06
2019-02-20T03:06:15.879Z,96.82
2019-02-20T03:08:44.419Z,97.57
2019-02-20T03:11:12.866Z,96.65
2019-02-20T03:13:41.292Z,97.68
2019-02-20T03:16:09.747Z,99.12
2019-02-20T03:18:38.171Z,99.57
2019-02-20T03:21:06.666Z,99.15
2019-02-20T03:23:40.138Z,97.80
2019-02-20T03:26:05.720Z,97.90
2019-02-20T03:28:34.108Z,97.28
2019-02-20T03:31:02.570Z,97.03
2019-02-20T03:33:31.011Z,96.67
2019-02-20T03:35:59.537Z,97.01
2019-02-20T03:38:30.604Z,96.93
2019-02-20T03:40:58.391Z,96.39
2019-02-20T03:43:26.917Z,96.32
2019-02-20T03:45:55.385Z,96.71
2019-02-20T03:48:23.808Z,97.27
2019-02-20T03:50:52.234Z,96.86
2019-02-20T03:53:20.685Z,97.25
2019-02-20T03:55:49.462Z,97.90
2019-02-20T03:58:18.151Z,96.73
2019-02-20T04:00:46.663Z,96.80
2019-02-20T04:03:15.094Z,96.68
2019-02-20T04:05:43.510Z,96.72
2019-02-20T04:08:11.976Z,96.81
2019-02-20T04:10:40.410Z,96.39
2019-02-20T04:13:08.847Z,96.36
2019-02-20T04:15:37.451Z,96.52
2019-02-20T04:18:05.880Z,96.85
2019-02-20T04:20:34.304Z,96.13
2019-02-20T04:23:02.784Z,95.65
2019-02-20T04:25:32.027Z,96.63
2019-02-20T04:28:00.528Z,96.22
2019-02-20T04:30:29.944Z,96.30
2019-02-20T04:32:58.619Z,96.24
2019-02-20T04:35:27.176Z,95.84
2019-02-20T04:37:55.627Z,94.66
2019-02-20T04:40:24.123Z,95.18
2019-02-20T04:42:52.547Z,96.37
2019-02-20T04:45:21.029Z,96.28
2019-02-20T04:47:49.461Z,96.18
2019-02-20T04:50:17.898Z,96.67
2019-02-20T04:52:46.364Z,96.26
2019-02-20T04:55:14.767Z,96.72
2019-02-20T04:57:43.194Z,97.13
2019-02-20T05:00:14.004Z,97.53
2019-02-20T05:02:42.502Z,97.47
2019-02-20T05:05:10.992Z,97.33
2019-02-20T05:07:39.868Z,96.69
2019-02-20T05:10:10.133Z,96.55
2019-02-20T05:12:38.556Z,97.05
2019-02-20T05:15:07.459Z,97.57
2019-02-20T05:17:35.976Z,97.48
2019-02-20T05:20:06.662Z,97.61
2019-02-20T05:22:35.207Z,97.42
2019-02-20T05:25:03.806Z,97.14
2019-02-20T05:27:32.225Z,97.37
2019-02-20T05:30:00.693Z,97.37
2019-02-20T05:32:29.116Z,97.06
2019-02-20T05:34:57.564Z,96.53
2019-02-20T05:37:25.997Z,96.64
2019-02-20T05:39:54.449Z,96.97
2019-02-20T05:42:22.860Z,97.45
2019-02-20T05:44:51.511Z,97.30
2019-02-20T05:47:19.993Z,97.23
2019-02-20T05:49:48.381Z,97.36
2019-02-20T05:52:16.961Z,96.37
2019-02-20T05:54:45.682Z,97.20
2019-02-20T05:57:14.457Z,98.09
2019-02-20T05:59:43.181Z,97.66
2019-02-20T06:02:11.611Z,97.62
2019-02-20T06:04:40.039Z,97.73
2019-02-20T06:07:09.067Z,97.81
2019-02-20T06:09:37.585Z,97.41
2019-02-20T06:12:06.012Z,97.75
2019-02-20T06:14:34.747Z,97.66
2019-02-20T06:17:03.254Z,96.91
2019-02-20T06:19:31.791Z,97.74
2019-02-20T06:22:00.329Z,97.55
2019-02-20T06:24:28.763Z,96.85
2019-02-20T06:26:57.189Z,96.03
2019-02-20T06:29:25.648Z,96.40
2019-02-20T06:31:54.078Z,96.87
2019-02-20T06:34:22.502Z,97.54
2019-02-20T06:36:50.981Z,97.25
2019-02-20T06:39:19.410Z,96.75
2019-02-20T06:41:48.269Z,96.68
2019-02-20T06:44:16.824Z,97.09
2019-02-20T06:46:45.260Z,97.31
2019-02-20T06:49:13.685Z,97.23
2019-02-20T06:51:42.152Z,97.31
2019-02-20T06:54:10.576Z,97.13
2019-02-20T06:56:39.004Z,97.04
2019-02-20T06:59:07.560Z,96.82
2019-02-20T07:01:35.988Z,97.10
2019-02-20T07:04:04.656Z,97.42
2019-02-20T07:06:57.685Z,97.35
2019-02-20T07:09:34.766Z,97.75
2019-02-20T07:12:18.498Z,97.71
2019-02-20T07:15:09.482Z,98.21
2019-02-20T07:17:46.703Z,97.22
2019-02-20T07:20:24.025Z,96.38
2019-02-20T07:23:17.305Z,97.41
2019-02-20T07:25:51.391Z,98.69
2019-02-20T07:28:56.244Z,98.97
2019-02-20T07:31:24.755Z,98.36
2019-02-20T07:33:53.179Z,98.58
2019-02-20T07:36:22.000Z,98.51
2019-02-20T07:38:50.434Z,98.36
2019-02-20T07:41:18.970Z,98.02
2019-02-20T07:43:47.434Z,98.23
2019-02-20T07:46:15.866Z,98.36
2019-02-20T07:48:44.609Z,97.82
2019-02-20T07:51:14.891Z,97.88
2019-02-20T07:53:43.415Z,97.76
2019-02-20T07:56:11.843Z,97.78
2019-02-20T07:58:40.321Z,98.59
2019-02-20T08:01:08.843Z,98.45
2019-02-20T08:03:37.280Z,99.17
2019-02-20T08:06:05.745Z,99.58
2019-02-20T08:08:34.177Z,98.73
2019-02-20T08:11:02.615Z,98.01
2019-02-20T08:13:39.056Z,97.54
2019-02-20T08:16:01.336Z,97.70
2019-02-20T08:18:29.866Z,97.27
2019-02-20T08:20:58.676Z,97.45
2019-02-20T08:23:27.110Z,94.63
2019-02-20T08:25:55.536Z,93.63
2019-02-20T08:28:24.329Z,94.03
2019-02-20T08:30:52.762Z,95.37
2019-02-20T08:33:21.194Z,95.98
2019-02-20T08:35:49.952Z,96.07
2019-02-20T08:38:18.400Z,96.57
2019-02-20T08:40:46.833Z,96.11
2019-02-20T08:43:15.361Z,95.72
2019-02-20T08:45:43.749Z,95.77
2019-02-20T08:48:12.180Z,95.58
2019-02-20T08:50:40.636Z,95.86
2019-02-20T08:53:09.427Z,95.70
2019-02-20T08:55:38.031Z,94.94
2019-02-20T08:58:06.897Z,94.77
2019-02-20T09:00:35.609Z,94.74
2019-02-20T09:03:04.372Z,94.22
2019-02-20T09:05:34.247Z,94.50
2019-02-20T09:08:02.960Z,93.99
2019-02-20T09:10:31.395Z,93.37
2019-02-20T09:12:59.865Z,93.23
2019-02-20T09:15:28.389Z,92.91
2019-02-20T09:17:56.821Z,92.56
2019-02-20T09:20:25.366Z,92.45
2019-02-20T09:22:53.796Z,93.16
2019-02-20T09:25:22.236Z,92.68
2019-02-20T09:27:50.809Z,92.10
2019-02-20T09:30:28.052Z,91.72
2019-02-20T09:32:49.732Z,91.39
2019-02-20T09:35:18.309Z,91.29
2019-02-20T09:37:46.748Z,90.68
2019-02-20T09:40:18.768Z,89.78
2019-02-20T09:42:49.932Z,90.15
2019-02-20T09:45:18.365Z,89.94
2019-02-20T09:47:46.883Z,89.53
2019-02-20T09:50:15.497Z,89.44
2019-02-20T09:52:51.909Z,88.65
2019-02-20T09:55:14.717Z,88.23
2019-02-20T09:57:43.312Z,86.65
2019-02-20T10:00:16.855Z,85.39
2019-02-20T10:02:47.213Z,87.27
2019-02-20T10:05:16.065Z,87.10
2019-02-20T10:07:44.870Z,87.48
2019-02-20T10:10:13.714Z,87.39
2019-02-20T10:12:42.333Z,87.58
2019-02-20T10:15:18.796Z,87.53
2019-02-20T10:17:47.264Z,87.22
2019-02-20T10:20:15.730Z,87.24
2019-02-20T10:22:44.166Z,87.01
2019-02-20T10:25:13.786Z,86.22
2019-02-20T10:27:42.220Z,85.75
2019-02-20T10:30:50.595Z,85.92
2019-02-20T10:33:19.025Z,85.57
2019-02-20T10:35:47.457Z,84.94
2019-02-20T10:38:15.908Z,84.56
2019-02-20T10:40:44.336Z,84.82
2019-02-20T10:43:12.767Z,85.55
2019-02-20T10:45:41.250Z,85.23
2019-02-20T10:48:29.041Z,84.83
2019-02-20T10:50:57.883Z,84.44
2019-02-20T10:53:26.401Z,83.35
2019-02-20T10:55:55.129Z,82.47
2019-02-20T10:58:23.584Z,83.30
2019-02-20T11:01:11.333Z,83.22
2019-02-20T11:03:39.808Z,82.57
2019-02-20T11:06:27.486Z,82.15
2019-02-20T11:08:56.040Z,81.23
2019-02-20T11:11:24.568Z,81.13
2019-02-20T11:13:52.996Z,80.93
2019-02-20T11:16:21.467Z,80.20
2019-02-20T11:18:49.897Z,79.55
2019-02-20T11:21:18.329Z,79.87
2019-02-20T11:23:46.791Z,79.46
2019-02-20T11:26:18.279Z,79.15
2019-02-20T11:28:45.369Z,78.12
2019-02-20T11:31:14.143Z,78.30
2019-02-20T11:33:42.900Z,78.29
2019-02-20T11:36:30.780Z,78.00
2019-02-20T11:39:18.884Z,76.97
2019-02-20T11:41:47.341Z,77.00
2019-02-20T11:44:21.060Z,76.50
2019-02-20T11:46:45.930Z,76.81
2019-02-20T11:49:14.384Z,77.30
2019-02-20T11:51:42.851Z,76.37
2019-02-20T11:54:11.282Z,75.84
2019-02-20T11:56:59.146Z,75.33
2019-02-20T11:59:27.929Z,75.69
2019-02-20T12:01:56.362Z,74.03
2019-02-20T12:04:24.834Z,74.01
2019-02-20T12:07:12.582Z,72.18
2019-02-20T12:12:14.817Z,73.01
2019-02-20T12:14:43.243Z,69.03
2019-02-20T12:17:11.814Z,69.70
2019-02-20T12:19:40.314Z,68.14
2019-02-20T12:22:28.742Z,68.53
2019-02-20T12:24:59.264Z,67.83
2019-02-20T12:27:46.865Z,67.87
2019-02-20T12:30:55.219Z,67.83
2019-02-20T12:35:58.282Z,66.84
2019-02-20T12:38:26.853Z,67.26
2019-02-20T12:40:55.285Z,67.58
2019-02-20T12:43:23.717Z,66.70
2019-02-20T12:45:52.204Z,67.27
2019-02-20T12:48:20.609Z,66.44
2019-02-20T12:50:49.060Z,67.08
2019-02-20T12:53:17.544Z,65.76
2019-02-20T12:55:45.975Z,65.63
2019-02-20T12:58:14.512Z,65.84
2019-02-20T13:00:43.752Z,65.63
2019-02-20T13:03:12.340Z,65.58
2019-02-20T13:05:42.480Z,65.80
2019-02-20T13:08:11.144Z,65.12
2019-02-20T13:10:39.577Z,65.03
2019-02-20T13:13:08.684Z,64.37
2019-02-20T13:15:37.576Z,63.94
2019-02-20T13:18:06.145Z,63.96
2019-02-20T13:20:34.949Z,64.23
2019-02-20T13:23:03.405Z,64.19
2019-02-20T13:25:31.900Z,64.10
2019-02-20T13:28:07.715Z,63.59
2019-02-20T13:30:36.453Z,62.67
2019-02-20T13:33:04.888Z,63.41
2019-02-20T13:35:33.334Z,61.98
2019-02-20T13:38:01.832Z,62.31
2019-02-20T13:40:30.450Z,62.93
2019-02-20T13:42:59.164Z,63.21
2019-02-20T13:45:27.659Z,63.10
2019-02-20T13:47:56.088Z,63.15
2019-02-20T13:50:25.429Z,62.16
2019-02-20T13:52:54.217Z,64.05
2019-02-20T13:55:22.715Z,64.20
2019-02-20T13:57:51.243Z,64.33
2019-02-20T14:00:19.852Z,64.05
2019-02-20T14:02:48.281Z,63.88
2019-02-20T14:05:16.850Z,64.53
2019-02-20T14:07:45.365Z,64.41
2019-02-20T14:10:14.306Z,64.23
2019-02-20T14:12:42.941Z,64.12
2019-02-20T14:15:12.578Z,63.72
2019-02-20T14:17:41.006Z,63.98
2019-02-20T14:20:11.852Z,63.91
2019-02-20T14:22:40.716Z,64.62
2019-02-20T14:25:10.586Z,64.57
2019-02-20T14:27:39.138Z,64.20
2019-02-20T14:30:11.886Z,63.87
2019-02-20T14:32:40.384Z,63.91
2019-02-20T14:35:15.054Z,63.70
2019-02-20T14:37:43.635Z,63.79
2019-02-20T14:40:12.132Z,63.32
2019-02-20T14:42:40.943Z,63.01
2019-02-20T14:45:15.320Z,63.48
2019-02-20T14:47:43.989Z,63.01
2019-02-20T14:50:13.073Z,62.70
2019-02-20T14:52:42.423Z,62.33
2019-02-20T14:55:11.594Z,62.10
2019-02-20T14:57:40.046Z,62.79
2019-02-20T15:00:13.791Z,62.68
2019-02-20T15:02:42.512Z,62.80
2019-02-20T15:05:12.041Z,62.12
2019-02-20T15:07:40.662Z,61.57
2019-02-20T15:10:10.186Z,62.09
2019-02-20T15:12:39.204Z,61.90
2019-02-20T15:15:13.329Z,60.96
2019-02-20T15:17:41.760Z,61.52
2019-02-20T15:20:11.364Z,61.63
2019-02-20T15:22:39.986Z,61.48
2019-02-20T15:25:09.487Z,62.12
2019-02-20T15:27:38.444Z,61.89
2019-02-20T15:30:12.948Z,62.21
2019-02-20T15:32:41.420Z,62.03
2019-02-20T15:35:10.131Z,63.25
2019-02-20T15:37:38.863Z,62.72
2019-02-20T15:40:09.335Z,62.83
2019-02-20T15:42:38.237Z,62.90
2019-02-20T15:45:09.000Z,62.97
2019-02-20T15:47:37.515Z,63.26
2019-02-20T15:50:12.139Z,63.41
2019-02-20T15:52:40.912Z,64.12
2019-02-20T15:55:11.518Z,64.15
2019-02-20T15:57:40.041Z,64.01
2019-02-20T16:00:11.516Z,64.05
2019-02-20T16:02:40.052Z,64.06
2019-02-20T16:05:08.907Z,64.50
2019-02-20T16:07:37.429Z,65.12
2019-02-20T16:10:08.976Z,63.67
2019-02-20T16:12:37.420Z,63.20
2019-02-20T16:15:08.710Z,63.77
2019-02-20T16:17:37.149Z,64.50
2019-02-20T16:20:09.058Z,64.64
2019-02-20T16:22:37.825Z,64.22
2019-02-20T16:25:09.455Z,64.22
2019-02-20T16:27:46.475Z,65.59
2019-02-20T16:30:13.455Z,65.43
2019-02-20T16:32:42.624Z,64.96
2019-02-20T16:35:12.019Z,64.87
2019-02-20T16:37:40.605Z,64.81
2019-02-20T16:40:14.349Z,65.07
2019-02-20T16:42:43.102Z,65.48
2019-02-20T16:45:23.924Z,65.59
2019-02-20T16:47:52.972Z,65.71
2019-02-20T16:50:21.465Z,65.73
2019-02-20T16:52:50.016Z,66.04
2019-02-20T16:55:19.874Z,66.22
2019-02-20T16:57:56.193Z,66.73
2019-02-20T17:00:21.762Z,66.54
2019-02-20T17:02:50.547Z,66.46
2019-02-20T17:05:19.403Z,66.68
2019-02-20T17:07:48.497Z,67.21
2019-02-20T17:10:17.628Z,66.96
2019-02-20T17:12:46.200Z,67.13
2019-02-20T17:15:16.496Z,67.44
2019-02-20T17:17:45.287Z,67.57
2019-02-20T17:20:17.769Z,67.55
2019-02-20T17:22:46.647Z,68.20
2019-02-20T17:25:15.965Z,68.77
2019-02-20T17:27:44.768Z,68.80
2019-02-20T17:30:17.883Z,68.93
2019-02-20T17:32:46.740Z,69.25
2019-02-20T17:35:17.159Z,69.59
2019-02-20T17:37:46.144Z,70.06
2019-02-20T17:40:15.409Z,70.42
2019-02-20T17:42:43.965Z,71.12
2019-02-20T17:45:15.085Z,70.94
2019-02-20T17:47:43.867Z,71.20
2019-02-20T17:50:14.976Z,72.35
2019-02-20T17:52:43.790Z,71.95
2019-02-20T17:55:13.253Z,72.68
2019-02-20T17:57:41.676Z,73.85
2019-02-20T18:00:16.591Z,74.29
2019-02-20T18:02:45.039Z,75.44
2019-02-20T18:05:13.948Z,75.77
2019-02-20T18:07:48.803Z,77.11
2019-02-20T18:10:13.197Z,76.72
2019-02-20T18:12:41.615Z,78.05
2019-02-20T18:15:12.633Z,77.25
2019-02-20T18:17:41.064Z,78.26
2019-02-20T18:20:11.016Z,79.12
2019-02-20T18:22:39.498Z,79.23
2019-02-20T18:25:09.969Z,80.01
2019-02-20T18:27:38.521Z,81.14
2019-02-20T18:30:10.271Z,81.49
2019-02-20T18:32:39.052Z,81.02
2019-02-20T18:35:12.559Z,81.06
2019-02-20T18:37:41.094Z,80.74
2019-02-20T18:40:12.050Z,81.32
2019-02-20T18:42:40.477Z,81.05
2019-02-20T18:45:11.690Z,81.97
2019-02-20T18:47:40.104Z,82.10
2019-02-20T18:50:11.203Z,82.81
2019-02-20T18:52:39.667Z,83.43
2019-02-20T18:55:12.384Z,83.86
2019-02-20T18:57:41.254Z,84.61
2019-02-20T19:00:13.102Z,85.25
2019-02-20T19:02:41.511Z,83.80
2019-02-20T19:05:10.865Z,85.30
2019-02-20T19:07:39.430Z,84.98
2019-02-20T19:10:20.062Z,85.09
2019-02-20T19:13:03.662Z,84.97
2019-02-20T19:15:35.157Z,85.26
2019-02-20T19:18:29.352Z,86.24
2019-02-20T19:21:16.281Z,86.01
2019-02-20T19:23:56.686Z,85.85
2019-02-20T19:26:28.153Z,86.01
2019-02-20T19:29:08.719Z,85.91
2019-02-20T19:32:07.328Z,86.19
2019-02-20T19:34:53.642Z,86.48
2019-02-20T19:37:31.702Z,86.66
2019-02-20T19:40:18.070Z,86.98
2019-02-20T19:43:07.455Z,87.51
2019-02-20T19:46:10.619Z,87.27
2019-02-20T19:48:47.195Z,87.48
2019-02-20T19:51:35.348Z,86.43
2019-02-20T19:54:23.252Z,86.50
2019-02-20T19:57:03.598Z,87.97
2019-02-20T19:59:37.973Z,87.33
2019-02-20T20:02:27.796Z,86.43
2019-02-20T20:05:03.662Z,87.65
2019-02-20T20:07:53.252Z,88.66
2019-02-20T20:10:44.361Z,88.32
2019-02-20T20:13:34.336Z,88.74
2019-02-20T20:16:25.566Z,89.00
2019-02-20T20:19:03.160Z,89.15
2019-02-20T20:21:43.885Z,89.15
2019-02-20T20:24:18.122Z,89.37
2019-02-20T20:27:13.651Z,89.55
2019-02-20T20:30:00.167Z,89.42
2019-02-20T20:32:34.668Z,89.47
2019-02-20T20:35:21.481Z,91.25
2019-02-20T20:38:20.551Z,90.49
2019-02-20T20:41:01.511Z,90.28
2019-02-20T20:43:33.427Z,89.56
2019-02-20T20:46:04.984Z,90.69
2019-02-20T20:48:45.795Z,91.27
2019-02-20T20:51:18.305Z,90.91
2019-02-20T20:54:06.301Z,91.08
2019-02-20T20:56:57.380Z,90.90
2019-02-20T20:59:41.234Z,91.63
2019-02-20T21:02:21.867Z,92.34
2019-02-20T21:05:10.760Z,92.02
2019-02-20T21:07:45.144Z,92.67
2019-02-20T21:10:16.664Z,92.93
2019-02-20T21:12:57.610Z,92.43
2019-02-20T21:15:56.172Z,92.60
2019-02-20T21:18:39.608Z,92.67
2019-02-20T21:21:29.511Z,93.05
2019-02-20T21:24:06.992Z,93.24
2019-02-20T21:27:05.502Z,92.46
2019-02-20T21:29:52.280Z,92.60
2019-02-20T21:32:26.883Z,93.66
2019-02-20T21:35:01.253Z,93.19
2019-02-20T21:37:53.909Z,92.21
2019-02-20T21:40:48.296Z,92.16
2019-02-20T21:43:54.741Z,92.30
2019-02-20T21:46:45.210Z,92.76
2019-02-20T21:49:33.249Z,93.03
2019-02-20T21:52:36.454Z,93.68
2019-02-20T21:55:37.738Z,93.69
2019-02-20T21:58:12.040Z,95.27
2019-02-20T22:01:06.303Z,94.79
2019-02-20T22:04:00.598Z,94.47
2019-02-20T22:06:34.823Z,95.15
2019-02-20T22:09:26.523Z,95.28
2019-02-20T22:12:16.161Z,94.44
2019-02-20T22:14:56.210Z,94.71
2019-02-20T22:17:30.612Z,94.62
2019-02-20T22:20:19.019Z,94.89
2019-02-20T22:22:53.422Z,94.10
2019-02-20T22:25:36.768Z,93.31
2019-02-20T22:28:26.370Z,93.92
2019-02-20T22:31:00.810Z,93.13
2019-02-20T22:33:44.477Z,93.74
2019-02-20T22:36:19.458Z,94.53
2019-02-20T22:39:04.029Z,94.71
2019-02-20T22:42:04.268Z,94.22
2019-02-20T22:44:41.481Z,94.85
2019-02-20T22:47:18.710Z,92.62
2019-02-20T22:50:24.793Z,93.73
2019-02-20T22:52:59.023Z,93.83
2019-02-20T22:55:56.483Z,94.59
2019-02-20T22:58:46.097Z,94.66
2019-02-20T23:01:26.431Z,94.64
2019-02-20T23:04:12.790Z,94.42
2019-02-20T23:06:50.092Z,93.96
2019-02-20T23:09:42.944Z,94.33
2019-02-20T23:12:43.392Z,94.31
2019-02-20T23:15:12.072Z,93.73
2019-02-20T23:17:40.537Z,93.82
2019-02-20T23:20:09.229Z,94.22
2019-02-20T23:22:37.688Z,94.54
2019-02-20T23:25:06.844Z,95.51
2019-02-20T23:27:35.555Z,95.91
2019-02-20T23:30:12.557Z,95.93
2019-02-20T23:32:35.935Z,95.75
2019-02-20T23:35:04.805Z,95.79
2019-02-20T23:37:33.340Z,95.74
2019-02-20T23:40:01.773Z,95.33
2019-02-20T23:42:30.445Z,95.13
2019-02-20T23:44:58.902Z,94.50
2019-02-20T23:47:27.327Z,94.66
2019-02-20T23:49:56.524Z,94.69
2019-02-20T23:52:25.272Z,95.21
2019-02-20T23:54:53.805Z,95.77
2019-02-20T23:57:22.236Z,96.25
2019-02-20T23:59:51.038Z,96.06
